Time;durP1;ratioP1;P1;durP2;ratioP2;P2;SDS_P1;SDS_P2;PMS_P1;PMS_P2;Temp;Humidity;BMP_temperature;BMP_pressure;BME280_temperature;BME280_humidity;BME280_pressure;Samples;Min_cycle;Max_cycle;Signal;HPM_P1;HPM_P2
2021/03/14 00:00:40;;;;;;;2.03;1.93;;;;;;;0.94;72.78;93271.44;5115756;28;20027;-59
2021/03/14 00:03:07;;;;;;;2.25;1.73;;;;;;;0.78;73.64;93253.88;5115822;28;20427;-60
2021/03/14 00:05:34;;;;;;;1.13;1.13;;;;;;;0.89;73.97;93270.19;5115819;28;20023;-61
2021/03/14 00:07:59;;;;;;;6.82;4.03;;;;;;;0.98;73.71;93255.63;5115753;28;20038;-61
2021/03/14 00:10:25;;;;;;;1.63;1.52;;;;;;;1.03;72.99;93257.63;5115627;28;20475;-59
2021/03/14 00:12:50;;;;;;;0.45;0.45;;;;;;;0.91;73.06;93251.44;5115644;28;20103;-56
2021/03/14 00:15:19;;;;;;;1.08;1.08;;;;;;;0.82;71.40;93248.22;5115391;28;20050;-56
2021/03/14 00:17:45;;;;;;;2.17;1.58;;;;;;;0.95;70.59;93245.75;5115551;28;20015;-56
2021/03/14 00:20:11;;;;;;;0.85;0.82;;;;;;;0.93;70.27;93245.53;5115317;28;20088;-59
2021/03/14 00:22:36;;;;;;;1.48;1.38;;;;;;;0.97;70.64;93243.28;5115408;28;20106;-60
2021/03/14 00:25:03;;;;;;;0.52;0.52;;;;;;;0.89;71.24;93240.31;5115302;28;20556;-60
2021/03/14 00:27:29;;;;;;;1.20;1.13;;;;;;;0.65;71.98;93238.03;5115464;28;20051;-61
2021/03/14 00:29:54;;;;;;;1.45;1.30;;;;;;;0.88;71.73;93235.38;5115408;28;20508;-61
2021/03/14 00:32:20;;;;;;;0.30;0.30;;;;;;;0.76;72.12;93232.63;5115254;28;20488;-60
2021/03/14 00:34:45;;;;;;;0.22;0.22;;;;;;;0.88;71.44;93235.38;5115119;28;20555;-60
2021/03/14 00:37:11;;;;;;;0.55;0.55;;;;;;;0.67;71.38;93224.69;5115084;28;20023;-60
2021/03/14 00:39:36;;;;;;;10.98;2.08;;;;;;;0.47;71.99;93219.47;5115177;28;20070;-60
2021/03/14 00:42:02;;;;;;;0.60;0.60;;;;;;;0.29;72.90;93219.16;5114932;28;20089;-61
2021/03/14 00:44:28;;;;;;;3.03;2.47;;;;;;;0.52;71.85;93223.44;5114966;28;20059;-60
2021/03/14 00:46:53;;;;;;;0.93;0.93;;;;;;;0.51;71.77;93213.78;5115114;28;20023;-60
2021/03/14 00:49:20;;;;;;;1.10;1.00;;;;;;;0.61;71.28;93210.38;5114905;28;20503;-60
2021/03/14 00:51:46;;;;;;;1.17;1.13;;;;;;;0.58;71.78;93205.94;5114969;28;20096;-60
2021/03/14 00:54:12;;;;;;;2.05;1.95;;;;;;;0.46;72.17;93201.69;5114743;28;20028;-60
2021/03/14 00:56:38;;;;;;;1.75;0.77;;;;;;;0.39;72.37;93199.44;5114978;28;20468;-60
2021/03/14 00:59:03;;;;;;;1.75;1.10;;;;;;;0.43;71.54;93197.25;5114159;28;20099;-61
2021/03/14 01:01:29;;;;;;;1.45;1.02;;;;;;;-0.08;72.71;93164.97;5114619;28;20033;-61
2021/03/14 01:03:55;;;;;;;0.93;0.93;;;;;;;0.30;72.79;93196.97;5113617;28;20015;-61
2021/03/14 01:06:21;;;;;;;3.67;1.65;;;;;;;0.29;72.99;93197.44;5114066;28;20047;-54
2021/03/14 01:08:46;;;;;;;2.42;1.85;;;;;;;0.23;73.37;93197.41;5114496;28;20036;-49
2021/03/14 01:11:12;;;;;;;1.20;1.20;;;;;;;0.49;72.26;93198.00;5114465;28;20019;-55
2021/03/14 01:13:37;;;;;;;3.28;2.17;;;;;;;0.51;72.39;93200.22;5114603;28;20023;-60
2021/03/14 01:16:03;;;;;;;1.98;1.88;;;;;;;0.58;72.12;93191.59;5114383;28;20020;-60
2021/03/14 01:18:28;;;;;;;2.17;2.08;;;;;;;0.49;72.52;93186.38;5114121;28;20024;-59
2021/03/14 01:20:54;;;;;;;2.05;1.95;;;;;;;0.49;72.61;93189.09;5113272;28;20015;-59
2021/03/14 01:23:19;;;;;;;1.83;1.73;;;;;;;0.34;71.88;93183.88;5114450;28;20020;-62
2021/03/14 01:25:45;;;;;;;5.05;3.15;;;;;;;0.33;71.49;93185.09;5114306;28;20420;-61
2021/03/14 01:28:10;;;;;;;0.65;0.65;;;;;;;0.35;71.03;93182.63;5113771;28;20408;-61
2021/03/14 01:30:36;;;;;;;2.95;2.75;;;;;;;0.52;71.45;93185.41;5113388;28;20023;-61
2021/03/14 01:33:01;;;;;;;4.10;3.22;;;;;;;0.27;71.72;93173.50;5113920;28;20020;-61
2021/03/14 01:35:27;;;;;;;2.25;2.05;;;;;;;0.26;72.21;93184.84;5114205;28;20026;-62
2021/03/14 01:37:52;;;;;;;0.77;0.77;;;;;;;0.20;72.85;93178.63;5096022;28;20032;-62
2021/03/14 01:40:18;;;;;;;4.93;4.53;;;;;;;0.21;72.83;93180.13;5113793;28;20024;-62
2021/03/14 01:42:44;;;;;;;2.03;1.85;;;;;;;0.13;72.61;93185.28;5114022;28;20022;-61
2021/03/14 01:45:11;;;;;;;1.15;0.90;;;;;;;0.04;72.78;93171.94;5113596;28;20130;-62
2021/03/14 01:47:38;;;;;;;3.13;2.40;;;;;;;0.05;72.30;93181.53;5113822;28;20027;-58
2021/03/14 01:50:09;;;;;;;1.33;1.23;;;;;;;0.13;71.93;93168.97;5113794;28;20094;-60
2021/03/14 01:52:34;;;;;;;5.20;3.13;;;;;;;0.08;72.04;93171.69;5113797;28;20399;-60
2021/03/14 01:55:01;;;;;;;1.65;1.55;;;;;;;-0.01;72.72;93178.06;5113749;28;20026;-57
2021/03/14 01:57:27;;;;;;;4.30;3.90;;;;;;;-0.08;72.86;93171.13;5113562;28;20097;-60
2021/03/14 01:59:53;;;;;;;3.38;3.08;;;;;;;-0.11;72.84;93172.09;5095360;28;20039;-60
2021/03/14 02:02:18;;;;;;;2.28;2.13;;;;;;;-0.04;71.90;93176.31;5113422;28;20027;-61
2021/03/14 02:04:44;;;;;;;2.22;2.03;;;;;;;-0.10;71.43;93168.19;5113632;28;20024;-60
2021/03/14 02:07:09;;;;;;;5.20;3.30;;;;;;;-0.05;72.06;93185.72;5113377;28;20496;-60
2021/03/14 02:09:36;;;;;;;1.83;1.75;;;;;;;-0.07;71.87;93169.94;5112337;28;20018;-60
2021/03/14 02:12:02;;;;;;;3.22;3.03;;;;;;;-0.18;71.47;93145.47;5095034;28;20493;-61
2021/03/14 02:14:29;;;;;;;3.35;2.45;;;;;;;0.00;72.01;93168.72;5113335;28;20102;-60
2021/03/14 02:16:55;;;;;;;2.55;2.35;;;;;;;-0.03;72.07;93170.44;5095076;28;20023;-61
2021/03/14 02:19:25;;;;;;;1.75;1.60;;;;;;;-0.13;72.64;93169.13;5094808;28;20023;-61
2021/03/14 02:21:51;;;;;;;4.25;3.85;;;;;;;-0.12;71.96;93170.63;5094931;28;20499;-59
2021/03/14 02:24:20;;;;;;;0.55;0.55;;;;;;;-0.08;71.02;93175.81;5113060;28;20020;-60
2021/03/14 02:26:52;;;;;;;1.50;1.40;;;;;;;0.00;70.97;93168.72;5094909;28;20030;-60
2021/03/14 02:29:19;;;;;;;2.25;2.15;;;;;;;0.02;71.20;93171.69;5113119;28;20111;-60
2021/03/14 02:31:46;;;;;;;3.70;2.83;;;;;;;-0.03;71.19;93166.97;5094709;28;20015;-60
2021/03/14 02:34:14;;;;;;;1.80;1.70;;;;;;;0.06;72.12;93174.16;5094735;28;20024;-59
2021/03/14 02:36:43;;;;;;;1.25;1.25;;;;;;;-0.19;73.10;93164.91;5094439;28;20023;-62
2021/03/14 02:39:11;;;;;;;3.47;3.30;;;;;;;-0.17;74.04;93167.88;5077759;28;20038;-62
2021/03/14 02:41:36;;;;;;;2.70;2.38;;;;;;;-0.11;73.32;93171.38;5112621;28;20024;-61
2021/03/14 02:44:03;;;;;;;0.85;0.85;;;;;;;-0.09;72.99;93177.06;5112624;28;20053;-61
2021/03/14 02:46:29;;;;;;;0.73;0.68;;;;;;;-0.02;72.65;93173.88;5077386;28;20504;-58
2021/03/14 02:48:55;;;;;;;4.70;3.03;;;;;;;-0.18;72.08;93161.72;5094397;28;20484;-58
2021/03/14 02:51:21;;;;;;;3.67;2.65;;;;;;;-0.06;72.06;93173.34;5112515;28;20042;-60
2021/03/14 02:53:47;;;;;;;5.85;5.32;;;;;;;0.00;72.47;93174.88;5112526;28;20468;-61
2021/03/14 02:56:12;;;;;;;4.47;4.13;;;;;;;-0.03;72.31;93175.84;5094396;28;20039;-59
2021/03/14 02:58:38;;;;;;;5.72;2.80;;;;;;;-0.32;72.76;93173.47;5094529;28;20080;-60
2021/03/14 03:01:04;;;;;;;2.85;2.60;;;;;;;-0.45;73.29;93177.84;5094163;28;20106;-59
2021/03/14 03:03:30;;;;;;;3.00;2.72;;;;;;;-0.26;73.28;93173.53;5094101;28;20052;-61
2021/03/14 03:05:57;;;;;;;1.05;1.02;;;;;;;-0.08;72.74;93178.53;5094154;28;20054;-59
2021/03/14 03:08:23;;;;;;;1.83;1.73;;;;;;;-0.13;72.98;93174.56;5112213;28;20450;-59
2021/03/14 03:10:49;;;;;;;9.32;3.05;;;;;;;-0.27;73.81;93174.75;5112088;28;20022;-60
2021/03/14 03:13:16;;;;;;;7.55;3.75;;;;;;;-0.28;73.22;93170.56;5112153;28;20096;-60
2021/03/14 03:15:42;;;;;;;3.20;3.00;;;;;;;-0.23;72.76;93167.13;5094011;28;20509;-60
2021/03/14 03:18:08;;;;;;;3.30;3.03;;;;;;;-0.19;72.56;93156.78;5093903;28;20088;-60
2021/03/14 03:20:34;;;;;;;5.15;4.65;;;;;;;-0.20;73.60;93169.63;5111776;28;20110;-61
2021/03/14 03:22:59;;;;;;;6.80;3.22;;;;;;;-0.14;72.60;93164.19;5111888;28;20034;-59
2021/03/14 03:25:25;;;;;;;7.07;5.38;;;;;;;-0.15;72.91;93160.00;5093888;28;20023;-58
2021/03/14 03:27:51;;;;;;;7.65;6.05;;;;;;;-0.03;72.16;93156.13;5111995;28;20102;-59
2021/03/14 03:30:18;;;;;;;12.80;5.88;;;;;;;-0.09;71.88;93160.78;5111917;28;20019;-61
2021/03/14 03:32:44;;;;;;;4.68;3.45;;;;;;;0.07;72.38;93159.34;5111972;28;20051;-60
2021/03/14 03:35:11;;;;;;;2.63;2.42;;;;;;;0.14;71.14;93156.91;5111871;28;20035;-59
2021/03/14 03:37:37;;;;;;;1.75;1.63;;;;;;;-0.01;71.48;93151.69;5111951;28;20027;-60
2021/03/14 03:40:08;;;;;;;3.78;3.53;;;;;;;-0.23;72.54;93157.00;5111793;28;20020;-59
2021/03/14 03:42:39;;;;;;;3.75;3.45;;;;;;;-0.16;72.43;93148.41;5076810;28;20027;-60
2021/03/14 03:45:06;;;;;;;3.17;2.90;;;;;;;-0.35;72.88;93143.88;5090255;28;20081;-60
2021/03/14 03:47:32;;;;;;;5.10;3.40;;;;;;;-0.36;73.02;93140.44;5091294;28;20035;-59
2021/03/14 03:49:59;;;;;;;1.75;1.65;;;;;;;-0.47;73.33;93134.94;5090243;28;20420;-61
2021/03/14 03:52:25;;;;;;;2.22;1.95;;;;;;;-0.40;72.82;93153.47;5090222;28;20031;-60
2021/03/14 03:54:51;;;;;;;2.08;1.98;;;;;;;-0.38;72.94;93144.84;5090363;28;20032;-60
2021/03/14 03:57:17;;;;;;;1.50;1.40;;;;;;;-0.26;72.40;93149.13;5091493;28;20097;-57
2021/03/14 03:59:43;;;;;;;1.83;1.70;;;;;;;-0.40;72.61;93141.88;5089824;28;20031;-57
2021/03/14 04:02:11;;;;;;;3.13;2.92;;;;;;;-0.36;72.72;93139.69;5090135;28;20030;-57
2021/03/14 04:04:39;;;;;;;1.55;1.40;;;;;;;-0.49;72.81;93133.94;5090095;28;20024;-58
2021/03/14 04:07:04;;;;;;;6.03;2.95;;;;;;;-0.56;72.87;93137.84;5091415;28;20019;-57
2021/03/14 04:09:30;;;;;;;2.45;2.28;;;;;;;-0.54;72.44;93119.13;5090210;28;20481;-58
2021/03/14 04:11:56;;;;;;;3.90;2.85;;;;;;;-0.52;72.86;93134.94;5090068;28;20126;-58
2021/03/14 04:14:22;;;;;;;4.55;1.45;;;;;;;-0.62;72.53;93137.09;5090022;28;20107;-61
2021/03/14 04:16:49;;;;;;;2.38;2.20;;;;;;;-0.68;73.51;93132.84;5090086;28;20110;-61
2021/03/14 04:19:16;;;;;;;5.45;4.90;;;;;;;-0.51;73.67;93131.72;5091263;28;20515;-61
2021/03/14 04:21:42;;;;;;;2.85;2.67;;;;;;;-0.49;72.08;93131.97;5090087;28;20055;-60
2021/03/14 04:24:11;;;;;;;1.80;1.70;;;;;;;-0.59;71.99;93133.41;5091151;28;20051;-60
2021/03/14 04:26:39;;;;;;;2.33;2.22;;;;;;;-0.47;72.54;93137.66;5091408;28;20032;-59
2021/03/14 04:29:05;;;;;;;1.98;1.88;;;;;;;-0.46;71.97;93135.69;5089847;28;20116;-58
2021/03/14 04:31:30;;;;;;;3.40;3.13;;;;;;;-0.35;72.03;93130.31;5089977;28;20055;-57
2021/03/14 04:33:57;;;;;;;2.35;2.25;;;;;;;-0.87;72.94;93108.13;5092283;28;20111;-58
2021/03/14 04:36:23;;;;;;;1.80;1.73;;;;;;;-0.71;73.33;93114.88;5092115;28;20031;-59
2021/03/14 04:38:49;;;;;;;3.22;3.03;;;;;;;-0.69;73.37;93112.41;5093581;28;20080;-60
2021/03/14 04:41:16;;;;;;;4.97;4.60;;;;;;;-0.63;73.98;93111.22;5093425;28;20116;-60
2021/03/14 04:43:43;;;;;;;3.58;2.90;;;;;;;-0.69;74.42;93115.13;5094628;28;20020;-60
2021/03/14 04:46:12;;;;;;;7.65;3.47;;;;;;;-0.58;72.58;93120.56;5093198;28;20043;-61
2021/03/14 04:48:37;;;;;;;15.27;4.78;;;;;;;-0.68;71.80;93101.06;5093526;28;20024;-61
2021/03/14 04:51:04;;;;;;;5.38;3.97;;;;;;;-0.90;72.85;93111.78;5094510;28;20026;-61
2021/03/14 04:53:30;;;;;;;3.03;2.78;;;;;;;-0.76;72.71;93125.16;5094385;28;20020;-61
2021/03/14 04:55:56;;;;;;;14.05;5.38;;;;;;;-0.70;73.21;93124.47;5093356;28;20016;-61
2021/03/14 04:58:23;;;;;;;7.57;5.78;;;;;;;-0.74;73.15;93103.03;5093188;28;20031;-61
2021/03/14 05:00:50;;;;;;;3.97;3.33;;;;;;;-0.44;72.88;93125.09;5094495;28;20106;-62
2021/03/14 05:03:17;;;;;;;3.78;3.58;;;;;;;-0.69;73.93;93107.00;5093292;28;20436;-59
2021/03/14 05:05:44;;;;;;;4.20;3.70;;;;;;;-0.60;73.81;93120.31;5094264;28;20050;-60
2021/03/14 05:08:11;;;;;;;3.20;3.03;;;;;;;-0.68;74.11;93119.31;5092912;28;20024;-60
2021/03/14 05:10:40;;;;;;;3.80;3.50;;;;;;;-0.78;73.54;93114.06;5093263;28;20027;-60
2021/03/14 05:13:06;;;;;;;5.97;5.50;;;;;;;-0.52;73.29;93122.09;5092922;28;20024;-61
2021/03/14 05:15:32;;;;;;;3.47;2.63;;;;;;;-0.45;73.12;93120.91;5094268;28;20016;-61
2021/03/14 05:17:58;;;;;;;7.63;5.15;;;;;;;-0.36;73.60;93115.28;5094088;28;20024;-61
2021/03/14 05:20:23;;;;;;;8.45;4.90;;;;;;;-0.37;73.33;93117.22;5101045;28;20048;-60
2021/03/14 05:22:50;;;;;;;4.15;3.83;;;;;;;-0.43;73.75;93116.47;5093214;28;20024;-60
2021/03/14 05:25:17;;;;;;;4.30;3.90;;;;;;;-0.41;73.55;93113.28;5099813;28;20130;-60
2021/03/14 05:27:49;;;;;;;3.28;3.17;;;;;;;-0.31;73.47;93114.56;5103533;28;20100;-58
2021/03/14 05:30:20;;;;;;;21.67;6.55;;;;;;;-0.13;73.18;93109.44;5104702;28;20018;-59
2021/03/14 05:32:45;;;;;;;3.35;2.95;;;;;;;-0.07;73.30;93118.38;5103822;28;20424;-59
2021/03/14 05:35:11;;;;;;;7.50;6.00;;;;;;;0.08;72.63;93118.16;5092747;28;20024;-60
2021/03/14 05:37:36;;;;;;;4.65;4.25;;;;;;;0.15;72.14;93122.38;5099772;28;20095;-60
2021/03/14 05:40:03;;;;;;;5.20;4.57;;;;;;;0.21;72.06;93109.53;5103298;28;20102;-57
2021/03/14 05:42:28;;;;;;;12.35;4.90;;;;;;;0.26;72.42;93119.69;5104296;28;20024;-58
2021/03/14 05:44:54;;;;;;;12.77;8.55;;;;;;;0.40;71.60;93099.72;5108140;27;20100;-60
2021/03/14 05:47:20;;;;;;;7.65;6.78;;;;;;;0.66;71.25;93127.41;5105836;27;20015;-60
2021/03/14 05:49:46;;;;;;;8.70;7.90;;;;;;;0.85;71.48;93119.50;5121919;27;20014;-60
2021/03/14 05:52:16;;;;;;;12.32;6.32;;;;;;;0.90;70.56;93119.50;5113582;28;20036;-60
2021/03/14 05:54:42;;;;;;;7.38;6.22;;;;;;;0.81;71.78;93114.31;5120000;27;20019;-60
2021/03/14 05:57:08;;;;;;;8.52;7.82;;;;;;;0.88;71.83;93118.50;5076457;28;20077;-60
2021/03/14 05:59:34;;;;;;;10.95;5.75;;;;;;;1.04;70.90;93120.50;5093079;28;20031;-59
2021/03/14 06:02:00;;;;;;;4.72;4.38;;;;;;;1.12;71.61;93124.94;5074984;28;20016;-60
2021/03/14 06:04:27;;;;;;;5.32;3.55;;;;;;;1.12;71.90;93105.16;5106984;28;20042;-59
2021/03/14 06:06:53;;;;;;;3.97;3.60;;;;;;;1.11;73.51;93120.72;5095479;28;20027;-59
2021/03/14 06:09:19;;;;;;;3.72;3.38;;;;;;;1.21;74.37;93100.19;5113150;28;20045;-63
2021/03/14 06:11:44;;;;;;;9.57;5.05;;;;;;;1.69;76.26;93118.16;5113479;28;20024;-60
2021/03/14 06:14:10;;;;;;;3.30;3.05;;;;;;;2.28;73.71;93074.81;5113151;28;20051;-61
2021/03/14 06:16:35;;;;;;;6.95;6.25;;;;;;;3.16;70.65;93099.94;5113306;28;20515;-61
2021/03/14 06:19:01;;;;;;;6.28;5.22;;;;;;;3.56;68.82;93077.97;5105350;28;20024;-61
2021/03/14 06:21:30;;;;;;;16.42;4.47;;;;;;;4.36;67.04;93115.50;5092727;28;20035;-61
2021/03/14 06:24:02;;;;;;;4.25;3.95;;;;;;;4.88;64.77;93115.03;5092808;28;20020;-61
2021/03/14 06:26:48;;;;;;;5.05;4.35;;;;;;;5.63;63.04;93113.56;5092771;28;20024;-61
2021/03/14 06:29:16;;;;;;;5.65;4.50;;;;;;;6.39;60.58;93109.88;5092110;28;20035;-61
2021/03/14 06:31:49;;;;;;;3.23;2.27;;;;;;;7.04;58.39;93102.75;5092824;28;20024;-60
2021/03/14 06:34:28;;;;;;;5.88;3.83;;;;;;;7.74;56.80;93106.28;5103092;28;20257;-62
2021/03/14 06:36:58;;;;;;;;;;;;;;;7.82;56.02;93101.59;5113272;28;20055;-64
2021/03/14 06:39:26;;;;;;;7.20;4.28;;;;;;;8.43;55.29;93103.44;5113160;28;19908;-60
2021/03/14 06:41:52;;;;;;;3.70;3.35;;;;;;;9.15;53.89;93098.53;5112715;28;20027;-60
2021/03/14 06:44:29;;;;;;;4.57;3.58;;;;;;;10.22;50.82;93092.50;5112885;28;20023;-60
2021/03/14 06:46:56;;;;;;;4.85;3.03;;;;;;;11.38;48.56;93090.16;5112860;28;20019;-60
2021/03/14 06:49:24;;;;;;;4.68;3.50;;;;;;;12.38;45.65;93084.03;5113253;28;20058;-61
2021/03/14 06:51:52;;;;;;;8.10;3.58;;;;;;;13.53;43.50;93087.63;5113394;28;20465;-60
2021/03/14 06:54:21;;;;;;;2.42;2.22;;;;;;;14.59;40.71;93088.66;5112494;28;20048;-62
2021/03/14 06:57:06;;;;;;;3.10;2.77;;;;;;;15.67;38.84;93090.91;5110591;28;20110;-63
2021/03/14 06:59:44;;;;;;;2.35;2.00;;;;;;;16.79;37.14;93085.19;5112351;28;20368;-62
2021/03/14 07:02:14;;;;;;;2.35;2.25;;;;;;;17.92;34.92;93082.66;5112363;28;20503;-61
2021/03/14 07:04:42;;;;;;;3.28;2.97;;;;;;;18.81;33.61;93082.38;5112263;28;20523;-62
2021/03/14 07:07:28;;;;;;;5.57;2.80;;;;;;;19.61;31.94;93097.44;5112478;28;20397;-63
2021/03/14 07:10:00;;;;;;;4.13;3.08;;;;;;;20.05;31.65;93085.09;5112229;28;20078;-63
2021/03/14 07:12:32;;;;;;;6.63;4.50;;;;;;;20.80;30.61;93093.28;5112414;28;20055;-63
2021/03/14 07:15:14;;;;;;;4.00;3.55;;;;;;;21.58;29.02;93078.84;5112158;28;20412;-61
2021/03/14 07:17:42;;;;;;;4.53;3.78;;;;;;;21.89;28.49;93078.97;5112133;28;20023;-64
2021/03/14 07:20:10;;;;;;;5.47;4.38;;;;;;;22.50;28.12;93071.16;5112154;28;20472;-63
2021/03/14 07:22:36;;;;;;;9.93;5.37;;;;;;;23.30;26.73;93071.09;5111968;28;20024;-59
2021/03/14 07:25:03;;;;;;;8.27;6.75;;;;;;;23.57;26.51;93078.53;5111909;28;20028;-59
2021/03/14 07:27:29;;;;;;;5.45;4.88;;;;;;;23.90;26.35;93076.34;5120190;27;20041;-57
2021/03/14 07:29:57;;;;;;;3.30;2.95;;;;;;;24.26;25.93;93071.38;5104027;28;20020;-57
2021/03/14 07:32:23;;;;;;;2.88;2.33;;;;;;;24.76;25.03;93075.34;5108680;28;20036;-57
2021/03/14 07:34:49;;;;;;;28.10;12.80;;;;;;;24.87;24.72;93074.31;5093258;28;20035;-56
2021/03/14 07:37:15;;;;;;;10.43;6.25;;;;;;;25.22;23.71;93062.84;5089543;28;20028;-56
2021/03/14 07:39:42;;;;;;;4.63;3.45;;;;;;;25.18;23.61;93051.41;5091781;28;20028;-54
2021/03/14 07:42:08;;;;;;;2.88;2.40;;;;;;;25.46;24.09;93046.00;5110119;28;20110;-59
2021/03/14 07:44:34;;;;;;;3.67;2.72;;;;;;;26.01;23.09;93040.66;5108644;28;20043;-57
2021/03/14 07:47:00;;;;;;;2.65;2.05;;;;;;;25.83;22.34;93036.56;5110667;28;20427;-57
2021/03/14 07:49:26;;;;;;;1.88;1.25;;;;;;;25.62;22.20;93051.44;5110567;28;20518;-57
2021/03/14 07:51:53;;;;;;;1.95;1.10;;;;;;;25.49;22.04;93034.06;5110499;28;20024;-57
2021/03/14 07:54:35;;;;;;;4.18;2.47;;;;;;;25.27;22.01;93041.81;5110484;28;20058;-57
2021/03/14 07:57:01;;;;;;;1.42;1.33;;;;;;;25.14;22.08;93033.59;5092650;28;20122;-56
2021/03/14 07:59:31;;;;;;;2.10;1.73;;;;;;;23.01;24.92;93029.75;5110485;28;20019;-57
2021/03/14 08:02:16;;;;;;;2.72;1.65;;;;;;;22.92;24.69;93027.25;5110029;28;20111;-57
2021/03/14 08:04:52;;;;;;;3.10;1.60;;;;;;;23.29;25.04;92996.38;5092816;28;20066;-57
2021/03/14 08:07:33;;;;;;;0.95;0.95;;;;;;;23.50;24.39;93031.75;5108808;28;20552;-56
2021/03/14 08:10:00;;;;;;;1.52;1.02;;;;;;;24.36;23.54;93014.59;5093884;28;20192;-56
2021/03/14 08:12:27;;;;;;;2.42;2.30;;;;;;;24.26;22.55;93025.50;5075531;28;20488;-56
2021/03/14 08:14:58;;;;;;;2.97;0.90;;;;;;;24.16;22.90;93008.94;5092253;28;20054;-56
2021/03/14 08:17:34;;;;;;;1.55;1.38;;;;;;;24.64;22.41;93018.44;5092067;28;20035;-56
2021/03/14 08:20:00;;;;;;;3.55;2.88;;;;;;;24.28;22.87;93011.50;5092412;28;20020;-56
2021/03/14 08:22:46;;;;;;;1.52;0.68;;;;;;;22.84;25.03;93012.84;5093127;28;20088;-56
2021/03/14 08:25:14;;;;;;;1.05;0.88;;;;;;;22.65;25.02;93013.44;5092650;28;20423;-55
2021/03/14 08:27:40;;;;;;;1.27;1.17;;;;;;;23.77;24.13;93009.59;5108347;27;20035;-58
2021/03/14 08:30:06;;;;;;;1.55;1.42;;;;;;;24.62;23.92;93010.59;5114021;28;20072;-56
2021/03/14 08:32:31;;;;;;;0.65;0.50;;;;;;;24.92;22.55;93013.78;5112558;27;20497;-56
2021/03/14 08:35:35;;;;;;;1.08;0.98;;;;;;;25.95;21.84;93000.88;5075252;28;20028;-57
2021/03/14 08:38:26;;;;;;;1.05;1.05;;;;;;;26.01;21.18;92995.38;5088804;28;20039;-57
2021/03/14 08:41:29;;;;;;;2.13;1.27;;;;;;;26.22;20.88;93002.41;5086313;28;20500;-55
2021/03/14 08:44:33;;;;;;;0.95;0.77;;;;;;;26.52;21.24;92994.03;5093179;28;20039;-56
2021/03/14 08:47:05;;;;;;;2.17;0.93;;;;;;;27.83;18.94;92969.03;5093198;28;20044;-55
2021/03/14 08:49:39;;;;;;;1.10;1.00;;;;;;;27.41;19.17;92982.94;5093205;28;20036;-58
2021/03/14 08:52:07;;;;;;;1.33;1.15;;;;;;;26.76;19.35;92986.22;5090259;28;20155;-58
2021/03/14 08:54:40;;;;;;;0.57;0.43;;;;;;;25.83;20.36;92985.66;5085358;28;20036;-60
2021/03/14 08:57:24;;;;;;;1.23;1.13;;;;;;;26.57;19.61;92987.09;5091740;28;20039;-58
2021/03/14 08:59:54;;;;;;;1.63;0.82;;;;;;;26.52;19.57;92972.09;5094002;28;20028;-60
2021/03/14 09:02:30;;;;;;;2.28;0.88;;;;;;;27.51;18.97;92963.34;5086829;27;20047;-58
2021/03/14 09:05:15;;;;;;;1.65;1.08;;;;;;;28.02;18.99;92956.72;5122879;27;20052;-61
2021/03/14 09:07:44;;;;;;;3.47;1.42;;;;;;;28.49;17.37;92959.09;5123038;27;20463;-60
2021/03/14 09:10:17;;;;;;;3.25;1.80;;;;;;;28.14;19.39;92931.41;5114875;27;20023;-57
2021/03/14 09:12:44;;;;;;;1.67;1.55;;;;;;;28.18;18.23;92949.25;5113098;28;20023;-57
2021/03/14 09:15:12;;;;;;;2.05;0.98;;;;;;;28.15;17.38;92939.28;5111945;28;20114;-57
2021/03/14 09:17:42;;;;;;;2.60;1.67;;;;;;;27.55;19.17;92946.41;5113592;27;20468;-57
2021/03/14 09:20:09;;;;;;;0.65;0.65;;;;;;;27.93;18.94;92941.59;5114429;27;20039;-57
2021/03/14 09:22:36;;;;;;;1.50;0.93;;;;;;;28.83;17.71;92951.25;5112846;28;20126;-57
2021/03/14 09:25:09;;;;;;;0.85;0.75;;;;;;;28.67;17.87;92941.72;5113005;28;20080;-57
2021/03/14 09:27:36;;;;;;;1.33;0.95;;;;;;;28.82;18.43;92944.16;5113014;28;20767;-59
2021/03/14 09:30:07;;;;;;;1.52;0.88;;;;;;;27.32;20.08;92944.44;5113251;28;20119;-57
2021/03/14 09:32:43;;;;;;;0.70;0.60;;;;;;;26.67;19.72;92942.78;5113054;28;20023;-56
2021/03/14 09:35:59;;;;;;;2.25;1.42;;;;;;;25.71;20.58;92937.91;5112796;28;20031;-56
2021/03/14 10:25:30;;;;;;;2.45;0.50;;;;;;;18.57;31.89;92919.53;5077002;28;20086;-59
2021/03/14 10:28:17;;;;;;;1.38;1.25;;;;;;;18.68;30.78;92912.44;5074504;28;20424;-60
2021/03/14 10:30:46;;;;;;;1.75;1.38;;;;;;;18.56;30.80;92908.97;5094390;28;20058;-60
2021/03/14 10:33:16;;;;;;;2.63;1.40;;;;;;;18.67;30.54;92916.56;5112994;28;20114;-59
2021/03/14 10:35:43;;;;;;;3.40;2.47;;;;;;;18.50;31.16;92914.22;5093434;28;20046;-61
2021/03/14 10:38:13;;;;;;;2.67;1.95;;;;;;;18.33;31.91;92895.03;5112748;28;20050;-60
2021/03/14 10:40:38;;;;;;;3.88;1.48;;;;;;;18.30;32.80;92905.38;5112327;28;20056;-58
2021/03/14 10:43:23;;;;;;;1.27;1.10;;;;;;;18.50;32.42;92900.22;5108632;28;20023;-62
2021/03/14 10:45:50;;;;;;;4.15;1.80;;;;;;;19.02;30.37;92894.00;5121282;27;20457;-59
2021/03/14 10:48:15;;;;;;;1.38;1.13;;;;;;;19.44;29.80;92894.22;5119569;27;20070;-61
2021/03/14 10:50:41;;;;;;;1.33;1.23;;;;;;;18.48;29.26;92874.97;5110873;28;20496;-61
2021/03/14 10:53:19;;;;;;;2.15;0.77;;;;;;;17.70;31.17;92873.97;5107908;27;20054;-61
2021/03/14 10:55:45;;;;;;;2.33;1.90;;;;;;;17.53;31.44;92877.88;5091786;28;20103;-61
2021/03/14 10:58:18;;;;;;;2.65;2.45;;;;;;;17.54;32.89;92865.38;5108856;28;20106;-61
2021/03/14 11:00:47;;;;;;;0.75;0.75;;;;;;;17.82;32.47;92872.59;5111658;28;20028;-61
2021/03/14 11:03:26;;;;;;;3.00;0.82;;;;;;;18.17;31.23;92878.09;5111406;28;20031;-61
2021/03/14 11:05:52;;;;;;;1.02;0.57;;;;;;;18.40;31.65;92857.72;5111879;28;20020;-61
2021/03/14 11:08:17;;;;;;;2.53;0.52;;;;;;;18.42;30.53;92863.41;5092625;28;20138;-61
2021/03/14 11:10:55;;;;;;;0.32;0.32;;;;;;;18.52;30.00;92855.63;5111362;28;20456;-61
2021/03/14 11:13:20;;;;;;;1.05;0.98;;;;;;;18.80;30.61;92848.78;5112062;28;20608;-61
2021/03/14 11:15:46;;;;;;;0.73;0.73;;;;;;;19.92;28.45;92842.03;5112364;28;20027;-61
2021/03/14 11:18:22;;;;;;;0.70;0.70;;;;;;;21.43;27.20;92832.38;5112140;28;20369;-61
2021/03/14 11:20:48;;;;;;;0.43;0.43;;;;;;;22.28;24.63;92826.22;5112034;28;20019;-61
2021/03/14 11:23:13;;;;;;;1.27;0.85;;;;;;;23.44;23.99;92820.91;5112121;28;20019;-61
2021/03/14 11:25:39;;;;;;;0.85;0.40;;;;;;;23.67;21.91;92828.78;5111963;28;20431;-59
2021/03/14 11:28:08;;;;;;;1.00;0.90;;;;;;;24.95;20.18;92814.75;5112093;28;20480;-59
2021/03/14 11:30:34;;;;;;;1.02;0.80;;;;;;;25.01;19.42;92814.97;5112098;28;20023;-59
2021/03/14 11:33:00;;;;;;;0.63;0.63;;;;;;;25.64;19.61;92811.19;5112188;28;20393;-58
2021/03/14 11:35:25;;;;;;;0.70;0.70;;;;;;;25.24;20.64;92813.53;5111973;28;20500;-58
2021/03/14 11:37:51;;;;;;;0.75;0.65;;;;;;;25.04;21.38;92810.09;5111962;28;20476;-58
2021/03/14 11:40:16;;;;;;;0.57;0.40;;;;;;;25.03;20.25;92803.00;5111472;28;20019;-59
2021/03/14 11:42:41;;;;;;;1.02;0.45;;;;;;;25.48;19.07;92789.56;5115753;28;20084;-59
2021/03/14 11:45:08;;;;;;;1.52;1.10;;;;;;;25.91;19.94;92794.25;5118659;28;20085;-58
2021/03/14 11:47:36;;;;;;;0.73;0.63;;;;;;;24.71;19.09;92794.94;5118954;28;20084;-58
2021/03/14 11:50:03;;;;;;;0.73;0.60;;;;;;;24.40;19.21;92786.91;5118797;28;20414;-58
2021/03/14 11:52:29;;;;;;;0.60;0.60;;;;;;;24.75;21.19;92786.63;5118578;28;20045;-58
2021/03/14 11:54:54;;;;;;;0.52;0.47;;;;;;;25.15;20.80;92775.09;5118715;28;20019;-58
2021/03/14 11:57:20;;;;;;;0.95;0.90;;;;;;;24.96;20.81;92776.69;5118649;28;20488;-58
2021/03/14 11:59:45;;;;;;;0.57;0.45;;;;;;;25.01;20.25;92769.06;5118310;28;20028;-58
2021/03/14 12:02:11;;;;;;;1.13;1.02;;;;;;;24.88;21.05;92762.31;5118467;28;20032;-58
2021/03/14 12:04:36;;;;;;;0.43;0.38;;;;;;;24.74;20.91;92770.31;5118430;28;20084;-58
2021/03/14 12:07:01;;;;;;;0.88;0.73;;;;;;;24.98;21.97;92765.44;5118465;28;20031;-58
2021/03/14 12:09:27;;;;;;;0.45;0.45;;;;;;;24.57;22.00;92755.00;5118564;28;20122;-58
2021/03/14 12:11:53;;;;;;;0.75;0.65;;;;;;;24.29;21.83;92756.91;5118572;28;20465;-58
2021/03/14 12:14:19;;;;;;;0.68;0.68;;;;;;;23.83;22.11;92753.25;5118383;28;20056;-58
2021/03/14 12:16:44;;;;;;;1.63;1.20;;;;;;;23.80;21.07;92743.28;5118314;28;20054;-58
2021/03/14 12:19:09;;;;;;;2.05;1.00;;;;;;;23.85;22.27;92735.66;5118284;28;20417;-58
2021/03/14 12:21:35;;;;;;;1.42;1.33;;;;;;;23.15;23.26;92731.81;5118245;28;20408;-58
2021/03/14 12:24:00;;;;;;;0.52;0.52;;;;;;;23.33;22.39;92728.94;5118427;28;20416;-58
2021/03/14 12:26:26;;;;;;;0.43;0.43;;;;;;;23.50;23.12;92725.31;5118159;28;20047;-58
2021/03/14 12:28:53;;;;;;;1.02;1.02;;;;;;;23.04;23.18;92727.19;5118376;28;20505;-58